KHMN/HMN METAR and TAF weather

Enter ICAO airport designator
Station Type Date Time Source
KHMN METAR 2018/12/13 21:58 UTC NOAA

KHMN 132158Z AUTO 30016KT 10SM CLR 10/M11 A3026 RMK AO2 SLP228 T00961111 $


Station Type Date Time Source
KHMN Decoded METAR 2018/12/13 21:58 UTC NOAA

Holloman Air Force Base, NM, United States (KHMN) 32-51N 106-06W 1248M
Dec 13, 2018 - 04:58 PM EST / 2018.12.13 2158 UTC
Wind: from the WNW (300 degrees) at 18 MPH (16 KT):0
Visibility: 10 mile(s):0
Sky conditions: clear
Temperature: 49.3 F (9.6 C)
Dew Point: 12.0 F (-11.1 C)
Relative Humidity: 21%
Pressure (altimeter): 30.26 in. Hg (1024 hPa)
ob: KHMN 132158Z AUTO 30016KT 10SM CLR 10/M11 A3026 RMK AO2 SLP228 T00961111
cycle: 22

Station Type Date Time Source
KHMN TAF 2018/12/13 17:55 UTC NOAA

TAF COR KHMN 130030Z 1217/1323 VRB06KT 9999 FEW080 BKN140 BKN180 QNH3006INS
BECMG 1220/1221 21009KT 9999 SCT140 BKN180 QNH2995INS
BECMG 1304/1305 32012G18KT 9999 SCT150 QNH2999INS
BECMG 1306/1307 32015G25KT 9999 FEW200 510009 QNH3002INS
TEMPO 1309/1312 33025G35KT 520009
BECMG 1322/1323 34009KT 9999 SKC QNH3003INS TX15/1221Z TNM02/1312Z LAST NO
AMDS AFT 1301 NEXT 1309


Example: see airport list